createdAt,value
2019-04-16T00:03:03.921Z,10.80
2019-04-16T00:07:50.919Z,10.80
2019-04-16T00:12:12.696Z,10.80
2019-04-16T00:16:25.083Z,10.70
2019-04-16T00:20:43.700Z,10.70
2019-04-16T00:24:57.847Z,10.70
2019-04-16T00:29:10.220Z,10.70
2019-04-16T00:33:23.104Z,10.70
2019-04-16T00:37:35.688Z,10.70
2019-04-16T00:41:48.096Z,10.70
2019-04-16T00:46:01.068Z,10.60
2019-04-16T00:50:13.428Z,10.50
2019-04-16T00:54:25.832Z,10.50
2019-04-16T00:58:38.625Z,10.50
2019-04-16T01:02:51.080Z,10.50
2019-04-16T01:07:03.595Z,10.50
2019-04-16T01:11:16.448Z,10.50
2019-04-16T01:15:29.169Z,10.50
2019-04-16T01:19:43.822Z,10.40
2019-04-16T01:23:56.225Z,10.30
2019-04-16T01:28:12.149Z,10.30
2019-04-16T01:32:43.446Z,10.20
2019-04-16T01:37:10.444Z,10.20
2019-04-16T01:41:22.849Z,10.10
2019-04-16T01:45:35.744Z,10.10
2019-04-16T01:49:49.387Z,10.00
2019-04-16T01:54:01.639Z,10.00
2019-04-16T01:58:13.944Z,9.90
2019-04-16T02:02:26.259Z,10.00
2019-04-16T02:06:39.053Z,9.90
2019-04-16T02:10:51.809Z,9.90
2019-04-16T02:15:04.737Z,9.90
2019-04-16T02:19:18.397Z,9.90
2019-04-16T02:23:30.914Z,9.90
2019-04-16T02:27:43.909Z,10.00
2019-04-16T02:31:56.459Z,10.00
2019-04-16T02:36:09.022Z,10.00
2019-04-16T02:40:21.977Z,10.00
2019-04-16T02:44:34.485Z,10.00
2019-04-16T02:48:51.452Z,10.10
2019-04-16T02:53:24.647Z,10.20
2019-04-16T02:57:46.462Z,10.20
2019-04-16T03:02:29.800Z,10.20
2019-04-16T03:06:42.128Z,10.30
2019-04-16T03:10:54.448Z,10.40
2019-04-16T03:15:07.805Z,10.50
2019-04-16T03:19:26.761Z,10.60
2019-04-16T03:23:39.481Z,10.60
2019-04-16T03:27:54.404Z,10.60
2019-04-16T03:32:06.355Z,10.60
2019-04-16T03:36:18.834Z,10.50
2019-04-16T03:40:31.925Z,10.50
2019-04-16T03:44:44.532Z,10.40
2019-04-16T03:48:57.581Z,10.40
2019-04-16T03:53:10.167Z,10.40
2019-04-16T03:57:22.489Z,10.30
2019-04-16T04:01:35.400Z,10.20
2019-04-16T04:05:56.414Z,10.10
2019-04-16T04:10:09.360Z,10.10
2019-04-16T04:14:23.420Z,10.00
2019-04-16T04:18:36.836Z,10.00
2019-04-16T04:22:49.159Z,9.90
2019-04-16T04:27:02.150Z,9.90
2019-04-16T04:31:14.614Z,9.80
2019-04-16T04:35:27.018Z,9.70
2019-04-16T04:39:43.927Z,9.70
2019-04-16T04:43:53.964Z,9.60
2019-04-16T04:48:06.689Z,9.50
2019-04-16T04:52:19.680Z,9.60
2019-04-16T04:56:32.548Z,9.60
2019-04-16T05:00:45.001Z,9.60
2019-04-16T05:05:02.653Z,9.70
2019-04-16T05:09:17.102Z,9.70
2019-04-16T05:13:29.987Z,9.70
2019-04-16T05:17:42.555Z,9.70
2019-04-16T05:21:55.029Z,9.80
2019-04-16T05:26:09.828Z,9.80
2019-04-16T05:30:22.216Z,9.80
2019-04-16T05:34:37.532Z,9.90
2019-04-16T05:38:48.991Z,10.00
2019-04-16T05:43:01.887Z,10.00
2019-04-16T05:47:18.071Z,10.00
2019-04-16T05:51:31.383Z,10.00
2019-04-16T05:55:59.794Z,10.00
2019-04-16T06:00:23.370Z,10.00
2019-04-16T06:04:36.249Z,10.00
2019-04-16T06:08:48.775Z,10.00
2019-04-16T06:13:18.919Z,10.00
2019-04-16T06:17:49.161Z,10.10
2019-04-16T06:22:28.410Z,10.10
2019-04-16T06:26:48.108Z,10.10
2019-04-16T06:31:18.055Z,10.20
2019-04-16T06:35:58.075Z,10.20
2019-04-16T06:40:35.169Z,10.30
2019-04-16T06:44:54.079Z,10.30
2019-04-16T06:49:18.779Z,10.40
2019-04-16T06:53:53.960Z,10.40
2019-04-16T06:58:27.484Z,10.30
2019-04-16T07:03:02.192Z,10.40
2019-04-16T07:07:37.894Z,10.50
2019-04-16T07:11:53.459Z,10.70
2019-04-16T07:15:56.988Z,10.80
2019-04-16T07:20:13.046Z,10.90
2019-04-16T07:24:23.817Z,10.90
2019-04-16T07:28:47.711Z,10.90
2019-04-16T07:33:28.676Z,11.00
2019-04-16T07:38:05.779Z,11.10
2019-04-16T07:42:35.094Z,11.10
2019-04-16T07:47:08.460Z,11.20
2019-04-16T07:51:30.416Z,11.20
2019-04-16T07:56:05.036Z,11.30
2019-04-16T08:00:18.287Z,11.30
2019-04-16T08:04:35.240Z,11.30
2019-04-16T08:08:45.683Z,11.40
2019-04-16T08:13:09.584Z,11.50
2019-04-16T08:17:22.173Z,11.60
2019-04-16T08:21:34.490Z,11.60
2019-04-16T08:25:47.390Z,11.70
2019-04-16T08:30:03.688Z,11.80
2019-04-16T08:34:13.908Z,11.90
2019-04-16T08:38:26.329Z,12.00
2019-04-16T08:42:44.731Z,12.00
2019-04-16T08:46:53.565Z,12.10
2019-04-16T08:51:05.901Z,12.30
2019-04-16T08:55:20.432Z,12.60
2019-04-16T08:59:33.133Z,13.10
2019-04-16T09:03:48.356Z,13.50
2019-04-16T09:08:13.023Z,14.00
2019-04-16T09:12:24.941Z,14.40
2019-04-16T09:16:45.988Z,14.70
2019-04-16T09:21:10.306Z,14.80
2019-04-16T09:25:54.235Z,14.90
2019-04-16T09:30:25.285Z,15.10
2019-04-16T09:35:08.921Z,15.20
2019-04-16T09:39:33.165Z,15.30
2019-04-16T09:43:48.827Z,15.40
2019-04-16T09:48:03.517Z,15.50
2019-04-16T09:52:16.231Z,15.50
2019-04-16T09:56:30.240Z,15.50
2019-04-16T10:00:47.150Z,15.50
2019-04-16T10:04:59.714Z,15.70
2019-04-16T10:09:13.176Z,15.50
2019-04-16T10:13:32.875Z,15.40
2019-04-16T10:17:40.197Z,15.50
2019-04-16T10:21:54.355Z,15.50
2019-04-16T10:26:07.170Z,15.80
2019-04-16T10:30:30.679Z,16.00
2019-04-16T10:34:44.361Z,16.00
2019-04-16T10:39:05.862Z,16.10
2019-04-16T10:43:47.459Z,16.10
2019-04-16T10:48:17.716Z,16.20
2019-04-16T10:52:47.730Z,16.20
2019-04-16T10:57:15.025Z,16.20
2019-04-16T11:01:41.063Z,16.00
2019-04-16T11:05:58.897Z,16.20
2019-04-16T11:10:11.919Z,16.40
2019-04-16T11:14:24.911Z,16.50
2019-04-16T11:18:39.221Z,16.30
2019-04-16T11:22:52.083Z,16.20
2019-04-16T11:27:04.562Z,16.50
2019-04-16T11:31:19.099Z,16.50
2019-04-16T11:35:31.704Z,16.50
2019-04-16T11:39:44.044Z,16.50
2019-04-16T11:43:56.986Z,16.50
2019-04-16T11:48:10.245Z,16.70
2019-04-16T11:52:23.130Z,16.60
2019-04-16T11:56:36.118Z,16.40
2019-04-16T12:00:54.015Z,16.20
2019-04-16T12:05:28.954Z,16.10
2019-04-16T12:10:19.640Z,16.40
2019-04-16T12:14:50.076Z,16.60
2019-04-16T12:19:21.664Z,16.60
2019-04-16T12:23:51.154Z,16.70
2019-04-16T12:28:31.838Z,16.60
2019-04-16T12:32:57.250Z,16.70
2019-04-16T12:37:37.338Z,16.80
2019-04-16T12:42:05.057Z,16.80
2019-04-16T12:46:29.516Z,16.90
2019-04-16T12:50:59.209Z,17.00
2019-04-16T12:55:42.544Z,17.10
2019-04-16T13:00:16.362Z,17.20
2019-04-16T13:04:50.589Z,17.30
2019-04-16T13:09:18.404Z,17.20
2019-04-16T13:13:54.624Z,17.10
2019-04-16T13:18:15.424Z,16.90
2019-04-16T13:22:32.744Z,16.80
2019-04-16T13:27:06.905Z,17.00
2019-04-16T13:31:19.255Z,17.10
2019-04-16T13:35:32.253Z,17.00
2019-04-16T13:39:59.584Z,17.00
2019-04-16T13:44:12.769Z,17.00
2019-04-16T13:48:59.416Z,17.00
2019-04-16T13:53:28.720Z,17.10
2019-04-16T13:57:38.305Z,17.10
2019-04-16T14:01:58.976Z,17.10
2019-04-16T14:06:11.290Z,17.10
2019-04-16T14:10:24.162Z,17.10
2019-04-16T14:14:36.907Z,17.00
2019-04-16T14:18:49.593Z,16.90
2019-04-16T14:23:02.049Z,16.80
2019-04-16T14:27:15.042Z,16.70
2019-04-16T14:31:27.841Z,16.60
2019-04-16T14:35:41.404Z,16.80
2019-04-16T14:40:13.092Z,16.70
2019-04-16T14:44:27.499Z,16.80
2019-04-16T14:48:45.298Z,16.80
2019-04-16T14:52:55.122Z,16.90
2019-04-16T14:57:10.901Z,16.70
2019-04-16T15:01:52.755Z,16.50
2019-04-16T15:06:19.409Z,16.50
2019-04-16T15:10:53.220Z,16.20
2019-04-16T15:15:24.375Z,16.40
2019-04-16T15:19:58.538Z,16.30
2019-04-16T15:24:26.516Z,16.20
2019-04-16T15:28:48.556Z,16.20
2019-04-16T15:33:19.777Z,16.40
2019-04-16T15:37:45.258Z,16.40
2019-04-16T15:42:23.011Z,16.40
2019-04-16T15:47:13.346Z,16.30
2019-04-16T15:51:37.440Z,16.30
2019-04-16T15:56:05.591Z,16.10
2019-04-16T16:00:41.384Z,16.20
2019-04-16T16:05:08.448Z,16.10
2019-04-16T16:09:25.365Z,16.10
2019-04-16T16:13:36.716Z,16.10
2019-04-16T16:17:49.613Z,16.00
2019-04-16T16:22:01.987Z,15.90
2019-04-16T16:26:14.761Z,15.90
2019-04-16T16:30:27.320Z,15.90
2019-04-16T16:34:39.732Z,15.90
2019-04-16T16:38:52.615Z,15.50
2019-04-16T16:43:07.892Z,15.40
2019-04-16T16:47:24.265Z,15.50
2019-04-16T16:51:38.492Z,15.60
2019-04-16T16:55:57.105Z,15.60
2019-04-16T17:00:28.107Z,15.70
2019-04-16T17:04:44.964Z,15.70
2019-04-16T17:08:57.566Z,15.70
2019-04-16T17:13:13.086Z,15.50
2019-04-16T17:17:25.018Z,15.50
2019-04-16T17:21:37.939Z,15.50
2019-04-16T17:25:50.825Z,15.40
2019-04-16T17:30:04.094Z,15.20
2019-04-16T17:34:16.924Z,14.90
2019-04-16T17:38:29.487Z,14.80
2019-04-16T17:42:43.657Z,14.70
2019-04-16T17:47:31.513Z,14.60
2019-04-16T17:51:53.407Z,14.50
2019-04-16T17:56:23.230Z,14.30
2019-04-16T18:00:54.540Z,14.00
2019-04-16T18:05:28.818Z,13.80
2019-04-16T18:09:53.047Z,13.80
2019-04-16T18:14:27.028Z,13.70
2019-04-16T18:19:04.729Z,13.60
2019-04-16T18:23:32.349Z,13.60
2019-04-16T18:27:53.981Z,13.50
2019-04-16T18:32:31.787Z,13.40
2019-04-16T18:37:00.995Z,13.30
2019-04-16T18:41:27.823Z,13.10
2019-04-16T18:45:57.943Z,13.10
2019-04-16T18:50:15.635Z,13.00
2019-04-16T18:54:28.046Z,12.80
2019-04-16T18:58:41.768Z,12.60
2019-04-16T19:02:54.649Z,12.50
2019-04-16T19:07:08.297Z,12.50
2019-04-16T19:11:20.763Z,12.40
2019-04-16T19:15:33.166Z,12.20
2019-04-16T19:19:46.112Z,12.20
2019-04-16T19:23:58.607Z,12.30
2019-04-16T19:28:11.125Z,12.30
2019-04-16T19:32:24.760Z,12.30
2019-04-16T19:36:37.904Z,12.30
2019-04-16T19:40:50.960Z,12.20
2019-04-16T19:45:04.816Z,12.20
2019-04-16T19:49:17.484Z,12.20
2019-04-16T19:53:30.186Z,12.20
2019-04-16T19:57:42.648Z,12.10
2019-04-16T20:02:00.212Z,12.00
2019-04-16T20:06:11.469Z,11.90
2019-04-16T20:10:23.980Z,11.90
2019-04-16T20:14:36.767Z,11.80
2019-04-16T20:18:51.147Z,11.70
2019-04-16T20:23:03.174Z,11.60
2019-04-16T20:27:19.432Z,11.60
2019-04-16T20:31:30.056Z,11.60
2019-04-16T20:35:42.366Z,11.40
2019-04-16T20:39:55.442Z,11.40
2019-04-16T20:44:09.276Z,11.30
2019-04-16T20:48:23.133Z,11.30
2019-04-16T20:52:36.162Z,11.40
2019-04-16T20:56:50.027Z,11.40
2019-04-16T21:01:03.270Z,11.40
2019-04-16T21:05:22.449Z,11.40
2019-04-16T21:09:30.990Z,11.20
2019-04-16T21:13:43.726Z,11.30
2019-04-16T21:17:56.633Z,11.30
2019-04-16T21:22:09.452Z,11.30
2019-04-16T21:26:21.728Z,11.30
2019-04-16T21:30:34.800Z,11.40
2019-04-16T21:34:58.641Z,11.40
2019-04-16T21:39:17.464Z,11.40
2019-04-16T21:43:28.984Z,11.40
2019-04-16T21:47:41.779Z,11.40
2019-04-16T21:52:10.373Z,11.40
2019-04-16T21:56:23.078Z,11.40
2019-04-16T22:00:52.817Z,11.40
2019-04-16T22:05:07.097Z,11.30
2019-04-16T22:09:19.408Z,11.30
2019-04-16T22:13:32.283Z,11.20
2019-04-16T22:17:44.756Z,11.10
2019-04-16T22:21:57.160Z,11.10
2019-04-16T22:26:10.996Z,11.00
2019-04-16T22:30:23.803Z,11.00
2019-04-16T22:34:36.347Z,11.10
2019-04-16T22:38:53.788Z,11.00
2019-04-16T22:43:23.905Z,11.00
2019-04-16T22:47:46.587Z,10.90
2019-04-16T22:51:59.369Z,11.00
2019-04-16T22:56:11.995Z,11.00
2019-04-16T23:00:44.495Z,11.00
2019-04-16T23:04:58.516Z,11.00
2019-04-16T23:09:16.756Z,11.00
2019-04-16T23:13:25.805Z,11.00
2019-04-16T23:17:38.272Z,11.00
2019-04-16T23:21:50.590Z,11.00
2019-04-16T23:26:02.992Z,10.90
2019-04-16T23:30:18.249Z,11.00
2019-04-16T23:34:29.776Z,10.90
2019-04-16T23:38:42.188Z,10.80
2019-04-16T23:43:11.993Z,10.80
2019-04-16T23:47:53.056Z,10.80
2019-04-16T23:52:13.012Z,10.80
2019-04-16T23:56:44.236Z,10.80
